Burns Pinion Ridge Reserve, California Weather observations

Data are for 10 minute period ending at time listed.
 Day   Time   Solar   Ave.   Ave.  Ave.  Vector  Max.   Baro.   Total    
  of    of     Rad.   Air    Rel.  Wind   Wind   Wind  Press.  Precip.   
Year   Day            Temp.  Hum.  Speed  Dir.   Gust                    
2015   (PST)  Kw/m2    F      %     mph   deg.    mph    mb.     in.     
-------------------------------------------------------------------------
  60    3:10   0.00   38.5    72    0.8    23     3.2   871.0    0.00 
  60    3:20   0.00   38.5    72    0.0     0     0.0   871.1    0.00 
  60    3:30   0.00   37.6    76    0.3   333     2.0   871.1    0.00 
  60    3:40   0.00   36.6    79    0.6   271     2.5   870.9    0.00 
  60    3:50   0.00   36.3    80    0.5    13     1.7   870.8    0.00 
  60    4:00   0.00   36.0    80    2.4     7     4.0   870.9    0.00 
  60    4:10   0.00   36.0    80    1.7   310     3.5   870.9    0.00 
  60    4:20   0.00   36.5    79    1.0    19     2.1   870.9    0.00 
  60    4:30   0.00   36.9    77    1.6     4     4.7   870.9    0.00 
  60    4:40   0.00   37.9    74    2.2     9     3.9   871.0    0.00 
  60    4:50   0.00   38.7    72    2.0    40     3.5   871.1    0.00 
  60    5:00   0.00   39.0    71    2.7     0     4.4   871.2    0.00 
  60    5:10   0.00   38.9    73    1.9   359     3.4   871.4    0.00 
  60    5:20   0.00   38.6    74    1.4   345     4.4   871.5    0.00 
  60    5:30   0.00   38.6    76    1.7   341     3.7   871.5    0.00 
  60    5:40   0.00   38.1    79    4.0   336     6.0   871.5    0.00 
  60    5:50   0.00   38.1    77    1.9   349     4.5   871.5    0.00 
  60    6:00   0.00   38.8    72    2.8    28     5.4   871.5    0.00 
  60    6:10   0.00   39.1    71    2.4    39     4.6   871.5    0.00 
  60    6:20   0.00   39.1    72    3.8    60     7.6   871.6    0.00 
  60    6:30   0.00   39.1    72    1.6   203     4.5   872.1    0.00 
  60    6:40   0.01   39.1    75    2.6   143     5.1   872.2    0.00 
  60    6:50   0.01   38.9    76    2.6    94     6.3   872.1    0.00 
  60    7:00   0.01   38.5    79    2.2    30     4.4   872.2    0.00 
  60    7:10   0.03   38.3    81    5.0    96     9.8   872.0    0.00 
  60    7:20   0.04   38.2    82    4.3   103     8.6   872.0    0.00 
  60    7:30   0.06   38.4    81    1.8    58     5.2   872.3    0.00 
  60    7:40   0.07   38.6    81    2.7    18     5.0   872.4    0.00 
  60    7:50   0.09   38.8    81    3.6   354     6.7   872.4    0.00 
  60    8:00   0.09   39.1    80    3.1   351     5.6   872.6    0.00 
  60    8:10   0.08   39.2    80    3.8   354     6.1   872.6    0.00 
  60    8:20   0.09   39.3    81    4.2    55     6.4   872.4    0.00 
  60    8:30   0.08   39.2    81    3.2    38     7.2   872.7    0.00 
  60    8:40   0.09   39.8    81    0.7    50     3.7   872.8    0.00 
  60    8:50   0.10   40.2    79    1.5   319     3.8   872.8    0.00 
  60    9:00   0.10   40.0    80    1.9   295     4.4   873.0    0.00 
  60    9:10   0.12   40.1    79    2.1   260     3.9   873.1    0.00 
  60    9:20   0.14   40.3    80    2.1   285     4.3   873.1    0.00 
  60    9:30   0.14   40.6    80    1.4   243     3.4   873.0    0.00 
  60    9:40   0.16   41.3    79    0.6   226     2.0   872.9    0.00 
  60    9:50   0.13   41.2    80    1.5   264     4.2   872.8    0.00 
  60   10:00   0.10   40.6    86    2.5   162     5.4   872.8    0.00 
  60   10:10   0.08   40.3    88    2.9   156     6.4   873.0    0.00 
  60   10:20   0.09   39.9    89    4.0   160     7.3   873.1    0.01 
  60   10:30   0.09   39.6    91    2.9   151     6.1   873.1    0.01 
  60   10:40   0.09   39.6    92    1.9   174     6.4   872.9    0.01 
  60   10:50   0.08   39.0    90    3.9   176     7.2   873.0    0.01 
  60   11:00   0.07   38.5    91    3.8   209     6.9   873.1    0.02 
  60   11:10   0.09   38.1    90    3.8   199     7.8   873.3    0.00 
  60   11:20   0.15   38.3    90    3.1   202     6.6   873.1    0.03 
  60   11:30   0.12   38.5    90    4.2   188     8.3   873.4    0.01 
  60   11:40   0.11   38.2    91    2.0   238     6.4   873.4    0.01 
  60   11:50   0.19   38.8    91    1.2   204     3.0   873.0    0.01 
  60   12:00   0.26   39.3    89    2.7   145     5.9   872.6    0.01 
  60   12:10   0.27   39.7    90    4.3   162     7.4   872.7    0.01 
  60   12:20   0.27   40.1    89    3.9   179     6.8   872.7    0.00 
  60   12:30   0.14   39.7    89    3.6   168     6.0   872.5    0.00 
  60   12:40   0.08   39.3    91    3.4   172     5.4   872.6    0.01 
  60   12:50   0.07   38.8    91    3.3   186     5.4   872.7    0.00 
  60   13:00   0.06   38.8    92    3.9   160     6.6   872.7    0.01 
  60   13:10   0.09   38.6    92    2.9   165     5.6   872.5    0.03 
  60   13:20   0.08   38.5    94    3.5   192     6.6   872.6    0.01 
  60   13:30   0.18   38.3    92    3.6   206     7.0   872.3    0.01 
  60   13:40   0.11   38.5    91    4.1   213     6.6   872.4    0.01 
  60   13:50   0.10   38.0    92    3.6   208     9.2   872.6    0.00 
  60   14:00   0.09   37.6    93    4.5   207     8.4   872.6    0.01 
  60   14:10   0.15   38.1    94    2.0   198     4.7   872.4    0.00 
  60   14:20   0.22   39.0    92    3.9   143     6.7   872.0    0.01 
  60   14:30   0.14   39.2    91    2.7   127     5.6   871.9    0.00 
  60   14:40   0.14   39.0    90    2.9   118     5.6   872.0    0.00 
  60   14:50   0.13   39.0    91    3.1    60     5.2   871.9    0.00 
  60   15:00   0.08   39.2    91    2.7    77     6.2   871.8    0.00 
  60   15:10   0.06   39.0    92    1.6   121     3.7   872.0    0.00 
  60   15:20   0.03   38.9    93    3.0   135     4.7   872.3    0.01 
  60   15:30   0.04   38.5    94    2.6   116     4.7   872.1    0.02 
  60   15:40   0.04   38.2    94    4.0   124     6.8   872.0    0.02 
  60   15:50   0.06   37.8    93    4.5   158     7.7   872.2    0.02 
  60   16:00   0.06   37.7    92    3.7   140     5.6   872.2    0.01 
  60   16:10   0.07   37.9    91    2.8   114     4.9   871.8    0.00 
  60   16:20   0.06   38.4    92    1.6    82     5.0   871.8    0.00 
  60   16:30   0.05   38.4    93    2.8    58     5.4   871.7    0.00 
  60   16:40   0.05   38.3    94    2.8    66     6.4   871.7    0.00 
  60   16:50   0.03   38.1    95    4.1    74     6.6   871.8    0.01 
  60   17:00   0.01   37.8    95    3.3    95     6.7   871.8    0.01 
  60   17:10   0.00   37.7    96    4.8   113     7.9   871.9    0.00 
  60   17:20   0.01   37.6    96    3.2   100     6.0   872.1    0.01 
  60   17:30   0.00   37.3    97    3.3   102     7.2   872.0    0.01 
  60   17:40   0.00   37.0    97    3.9   108     6.5   872.1    0.01 
  60   17:50   0.00   37.1    97    2.8   114     5.3   872.1    0.00 
  60   18:00   0.00   37.1    97    4.2   117     6.9   872.3    0.00 
  60   18:10   0.00   37.1    98    3.2    87     6.9   872.2    0.00 
  60   18:20   0.00   37.1    98    3.2   105     6.4   872.0    0.00 
  60   18:30   0.00   36.9    98    3.5   107     7.0   872.2    0.01 
  60   18:40   0.00   36.9    98    2.5    93     5.7   872.2    0.00 
  60   18:50   0.00   36.9    97    3.6    92     6.6   872.1    0.00 
  60   19:00   0.00   36.9    97    2.6    76     7.6   872.1    0.00 
  60   19:10   0.00   37.1    97    2.6    95     7.5   872.4    0.00 
  60   19:20   0.00   37.2    97    3.0   108     6.6   872.3    0.00 
  60   19:30   0.00   37.0    96    3.8   100     8.6   872.1    0.01 
  60   19:40   0.00   36.9    96    3.2    90     9.1   871.9    0.00 
  60   19:50   0.00   36.8    96    3.3   109     6.8   871.9    0.00 
  60   20:00   0.00   36.8    96    4.5   111     9.0   871.9    0.00 
  60   20:10   0.00   36.8    96    5.3   114     8.4   871.8    0.00 
  60   20:20   0.00   36.6    96    4.7   112     9.9   871.8    0.01 
  60   20:30   0.00   36.5    96    4.3   120     9.8   871.9    0.00 
  60   20:40   0.00   36.6    96    4.3   132     8.3   872.2    0.00 
  60   20:50   0.00   36.7    97    3.9   111     8.0   872.1    0.02 
  60   21:00   0.00   36.8    97    3.2   117     5.4   872.0    0.01 
  60   21:10   0.00   36.7    96    3.6   108     6.6   871.9    0.01 
  60   21:20   0.00   36.6    96    4.3   100     8.7   871.5    0.00 
  60   21:30   0.00   36.7    96    3.4    85     7.7   870.9    0.00 
  60   21:40   0.00   36.5    97    4.5   121     7.7   871.1    0.00 
  60   21:50   0.00   36.5    97    3.3   120     6.6   871.2    0.00 
  60   22:00   0.00   36.5    97    4.6   126     6.9   871.3    0.00 
  60   22:10   0.00   36.4    97    3.2   147     5.8   871.5    0.00 
  60   22:20   0.00   36.5    97    4.0   134     5.8   871.5    0.00 
  60   22:30   0.00   36.6    97    1.4   149     2.9   871.5    0.00 
  60   22:40   0.00   36.5    96    2.2   225     5.8   871.6    0.00 
  60   22:50   0.00   36.7    96    2.6   256     4.7   871.5    0.00 
  60   23:00   0.00   36.7    96    1.9   265     4.7   871.0    0.00 
  60   23:10   0.00   36.7    95    3.9   224     8.1   871.2    0.00 
  60   23:20   0.00   36.7    93    5.6   210     9.8   871.3    0.00 
  60   23:30   0.00   36.7    93    3.6   205     7.0   871.2    0.00 
  60   23:40   0.00   36.6    95    4.9   209     8.1   871.0    0.00 
  60   23:50   0.00   36.5    95    6.3   216    10.7   871.0    0.00 
  61    0:00   0.00   36.6    95    5.1   218    10.2   870.6    0.00 
  61    0:10   0.00   36.6    94    1.9   238     5.2   870.4    0.00 
  61    0:20   0.00   36.5    94    3.5   222     9.1   870.6    0.00 
  61    0:30   0.00   36.6    94    4.7   209     8.7   871.0    0.00 
  61    0:40   0.00   36.5    95    5.3   209    10.6   870.8    0.00 
  61    0:50   0.00   36.4    95    4.6   219    10.4   870.7    0.00 
  61    1:00   0.00   36.4    95    5.0   228     8.4   870.4    0.00 
  61    1:10   0.00   36.4    95    6.1   214    10.6   870.5    0.00 
  61    1:20   0.00   36.2    96    6.2   212    11.8   870.3    0.00 
  61    1:30   0.00   36.1    97    5.2   193    11.3   870.4    0.01 
  61    1:40   0.00   36.1    97    5.9   210    11.6   870.3    0.00 
  61    1:50   0.00   36.1    98    5.6   213    11.8   870.1    0.00 
  61    2:00   0.00   36.0    98    6.7   214    11.0   870.1    0.00 
  61    2:10   0.00   35.9    98    5.0   226     9.2   870.0    0.00 
  61    2:20   0.00   35.9    98    5.7   220    13.2   870.0    0.00 
  61    2:30   0.00   35.9    98    5.3   228    10.0   869.6    0.00 
  61    2:40   0.00   35.8    98    4.5   226     8.0   869.5    0.00 
  61    2:50   0.00   35.8    98    3.5   248     7.7   869.5    0.00 
  61    3:00   0.00   35.7    98    4.9   223     9.1   869.5    0.00 

Return to Burns Pinion Ridge Reserve graphs page.


Western Regional Climate Center,wrcc@dri.edu